Terminal Aerodrome Forecast
Issued by NWS La Crosse, WI

Home | Current Version | Previous Version | Text Only | Print | Product List | Glossary On
Versions: 1 2 3 4 5 6 7 8 9 10 11 12 13 14 15 16 17 18 19 20 21 22 23 24 25 26 27 28 29 30 31 32 33 34
000
FTUS43 KARX 092320
TAFLSE
TAF
KLSE 092320Z 1000/1024 27006KT P6SM OVC080
     FM101400 VRB03KT P6SM SCT070 OVC130
     FM102200 13004KT 3SM -SN OVC040=

USA.gov is the U.S. government's official web portal to all federal, state and local government web resources and services.